Time;durP1;ratioP1;P1;durP2;ratioP2;P2;SDS_P1;SDS_P2;PMS_P1;PMS_P2;Temp;Humidity;BMP_temperature;BMP_pressure;BME280_temperature;BME280_humidity;BME280_pressure;Samples;Min_cycle;Max_cycle;Signal;HPM_P1;HPM_P2
2023/12/19 00:00:05;;;;;;;2.63;1.40;;;19.30;55.70;;;;;;4982522;28;20034;-67
2023/12/19 00:02:31;;;;;;;2.55;1.40;;;19.30;55.70;;;;;;4996793;28;20065;-67
2023/12/19 00:04:57;;;;;;;1.98;1.20;;;19.30;55.70;;;;;;4981806;28;20058;-67
2023/12/19 00:07:22;;;;;;;2.45;1.33;;;19.30;55.70;;;;;;4995324;28;20077;-67
2023/12/19 00:09:49;;;;;;;1.95;1.20;;;19.30;55.70;;;;;;4981545;28;20081;-67
2023/12/19 00:12:14;;;;;;;2.17;1.20;;;19.30;55.70;;;;;;4998458;28;20035;-68
2023/12/19 00:14:40;;;;;;;3.15;1.27;;;19.30;55.70;;;;;;4981428;28;20081;-68
2023/12/19 00:17:05;;;;;;;1.90;1.20;;;19.30;55.70;;;;;;4982881;28;20501;-67
2023/12/19 00:19:31;;;;;;;2.38;1.40;;;19.30;55.60;;;;;;4980553;28;20050;-67
2023/12/19 00:21:57;;;;;;;2.22;1.30;;;19.30;55.70;;;;;;4983490;28;20069;-67
2023/12/19 00:24:22;;;;;;;2.15;1.30;;;19.30;55.70;;;;;;4978901;28;20031;-69
2023/12/19 00:26:48;;;;;;;1.90;1.20;;;19.30;55.70;;;;;;4980022;28;20093;-69
2023/12/19 00:29:14;;;;;;;2.95;1.52;;;19.30;55.70;;;;;;4980067;28;20077;-69
2023/12/19 00:31:39;;;;;;;2.83;1.42;;;19.20;55.60;;;;;;4978451;28;20509;-68
2023/12/19 00:34:05;;;;;;;2.15;1.20;;;19.20;55.60;;;;;;4981671;28;20554;-69
2023/12/19 00:36:30;;;;;;;2.40;1.30;;;19.20;55.60;;;;;;4983490;28;20113;-69
2023/12/19 00:38:56;;;;;;;2.03;1.35;;;19.20;55.60;;;;;;4982339;28;20444;-69
2023/12/19 00:41:22;;;;;;;2.60;1.33;;;19.20;55.60;;;;;;4981503;28;20441;-69
2023/12/19 00:43:47;;;;;;;2.60;1.20;;;19.20;55.60;;;;;;4981271;28;20054;-70
2023/12/19 00:46:13;;;;;;;2.60;1.40;;;19.20;55.60;;;;;;4980501;28;20049;-69
2023/12/19 00:48:39;;;;;;;2.33;1.35;;;19.20;55.60;;;;;;4995671;28;20034;-69
2023/12/19 00:51:10;;;;;;;2.35;1.30;;;19.20;55.60;;;;;;4996385;28;20023;-69
2023/12/19 00:53:36;;;;;;;2.00;1.20;;;19.20;55.60;;;;;;4980612;28;20479;-69
2023/12/19 00:56:02;;;;;;;2.60;1.25;;;19.20;55.60;;;;;;4981618;28;20026;-69
2023/12/19 00:58:27;;;;;;;2.40;1.40;;;19.20;55.60;;;;;;4980904;28;20046;-69
2023/12/19 01:00:53;;;;;;;2.63;1.30;;;19.20;55.60;;;;;;4976850;28;20390;-69
2023/12/19 01:03:18;;;;;;;2.30;1.20;;;19.20;55.70;;;;;;4981171;28;20458;-69
2023/12/19 01:05:44;;;;;;;2.20;1.30;;;19.20;55.60;;;;;;4980512;28;20042;-69
2023/12/19 01:08:10;;;;;;;2.08;1.13;;;19.20;55.60;;;;;;4994460;28;20027;-69
2023/12/19 01:10:35;;;;;;;1.80;1.10;;;19.20;55.60;;;;;;4980735;28;20110;-69
2023/12/19 01:13:02;;;;;;;2.25;1.30;;;19.20;55.60;;;;;;4996180;28;20077;-70
2023/12/19 01:15:27;;;;;;;1.98;1.15;;;19.20;55.60;;;;;;4980611;28;20061;-69
2023/12/19 01:17:53;;;;;;;2.20;1.30;;;19.20;55.60;;;;;;4983093;28;20063;-70
2023/12/19 01:20:19;;;;;;;1.45;1.20;;;19.20;55.60;;;;;;4980400;28;20038;-70
2023/12/19 01:22:45;;;;;;;2.10;1.40;;;19.20;55.60;;;;;;4981469;28;20033;-70
2023/12/19 01:25:10;;;;;;;2.53;1.30;;;19.20;55.60;;;;;;4980624;28;20109;-69
2023/12/19 01:27:36;;;;;;;2.05;1.30;;;19.20;55.60;;;;;;4977583;28;20504;-70
2023/12/19 01:30:02;;;;;;;2.30;1.30;;;19.20;55.60;;;;;;4984454;28;20029;-70
2023/12/19 01:32:27;;;;;;;2.53;1.40;;;19.20;55.60;;;;;;4979175;28;20102;-70
2023/12/19 01:34:53;;;;;;;2.50;1.40;;;19.20;55.60;;;;;;4982737;28;20494;-67
2023/12/19 01:37:19;;;;;;;2.08;1.23;;;19.20;55.60;;;;;;4978578;28;20070;-68
2023/12/19 01:39:44;;;;;;;2.10;1.20;;;19.20;55.60;;;;;;4981418;28;20038;-68
2023/12/19 01:42:10;;;;;;;1.98;1.17;;;19.20;55.60;;;;;;4981355;28;20488;-67
2023/12/19 01:44:35;;;;;;;2.08;1.20;;;19.20;55.60;;;;;;4981476;28;20039;-67
2023/12/19 01:47:01;;;;;;;2.65;1.33;;;19.20;55.60;;;;;;4979816;28;20081;-67
2023/12/19 01:49:27;;;;;;;1.90;1.20;;;19.20;55.60;;;;;;4995225;28;20031;-67
2023/12/19 01:51:53;;;;;;;1.83;1.20;;;19.20;55.60;;;;;;4978291;28;20031;-67
2023/12/19 01:54:20;;;;;;;2.00;1.10;;;19.20;55.60;;;;;;4979660;28;20109;-68
2023/12/19 01:56:47;;;;;;;2.20;1.30;;;19.20;55.80;;;;;;4981874;28;20026;-68
2023/12/19 01:59:13;;;;;;;2.10;1.20;;;19.20;55.60;;;;;;4980102;28;20027;-67
2023/12/19 02:01:39;;;;;;;2.25;1.10;;;19.20;55.60;;;;;;4981392;28;20519;-68
2023/12/19 02:04:06;;;;;;;2.20;1.30;;;19.10;55.60;;;;;;4978784;28;20399;-67
2023/12/19 02:06:34;;;;;;;1.90;1.13;;;19.10;55.60;;;;;;4977471;28;20108;-67
2023/12/19 02:08:59;;;;;;;1.65;1.00;;;19.10;55.60;;;;;;4980711;28;20429;-67
2023/12/19 02:11:25;;;;;;;2.28;1.35;;;19.10;55.60;;;;;;4979899;28;20026;-67
2023/12/19 02:13:51;;;;;;;1.95;1.30;;;19.20;55.60;;;;;;4980471;28;20039;-68
2023/12/19 02:16:16;;;;;;;2.13;1.30;;;19.10;55.60;;;;;;4980161;28;20471;-67
2023/12/19 02:18:43;;;;;;;1.77;1.15;;;19.10;56.10;;;;;;4983569;28;20297;-67
2023/12/19 02:21:08;;;;;;;1.88;1.10;;;19.10;55.60;;;;;;4976100;28;20480;-68
2023/12/19 02:23:34;;;;;;;1.58;1.00;;;19.10;55.60;;;;;;4978092;28;20062;-69
2023/12/19 02:26:00;;;;;;;2.03;1.15;;;19.10;55.60;;;;;;4980600;28;20518;-69
2023/12/19 02:28:25;;;;;;;2.20;1.20;;;19.10;55.60;;;;;;4979442;28;20034;-69
2023/12/19 02:30:51;;;;;;;2.20;1.20;;;19.10;55.60;;;;;;4995285;28;20822;-69
2023/12/19 02:33:17;;;;;;;1.73;1.10;;;19.10;55.60;;;;;;4981163;28;20031;-70
2023/12/19 02:35:43;;;;;;;1.55;1.00;;;19.10;55.50;;;;;;4979305;28;20085;-69
2023/12/19 02:38:08;;;;;;;1.90;1.10;;;19.10;55.60;;;;;;4995978;28;20050;-70
2023/12/19 02:40:34;;;;;;;1.50;1.10;;;19.10;55.60;;;;;;4979618;28;20026;-70
2023/12/19 02:43:01;;;;;;;1.30;0.90;;;19.10;55.60;;;;;;4979409;28;20062;-70
2023/12/19 02:45:30;;;;;;;1.27;1.00;;;19.10;55.60;;;;;;4978057;28;20102;-69
2023/12/19 02:47:55;;;;;;;1.55;1.00;;;19.10;55.60;;;;;;4978316;28;20476;-69
2023/12/19 02:50:21;;;;;;;1.70;1.20;;;19.10;55.60;;;;;;4978721;28;20066;-69
2023/12/19 02:52:47;;;;;;;1.70;1.15;;;19.10;55.60;;;;;;4976261;28;20113;-69
2023/12/19 02:55:12;;;;;;;1.85;1.17;;;19.10;55.60;;;;;;4978474;28;20459;-70
2023/12/19 02:57:38;;;;;;;1.77;0.90;;;19.00;55.50;;;;;;4977772;28;20101;-70
2023/12/19 03:00:05;;;;;;;2.00;1.20;;;19.10;55.60;;;;;;4979118;28;20588;-70
2023/12/19 03:02:31;;;;;;;2.67;1.40;;;19.00;55.50;;;;;;4980553;28;20698;-70
2023/12/19 03:04:57;;;;;;;1.58;1.08;;;19.00;55.50;;;;;;4981445;28;20022;-70
2023/12/19 03:07:22;;;;;;;2.30;1.10;;;19.10;55.60;;;;;;4993913;28;20037;-70
2023/12/19 03:09:48;;;;;;;1.75;1.10;;;19.00;55.50;;;;;;4979011;28;20435;-70
2023/12/19 03:12:14;;;;;;;2.30;1.25;;;19.00;55.50;;;;;;4980074;28;20055;-70
2023/12/19 03:14:39;;;;;;;2.15;1.20;;;19.00;55.50;;;;;;4979193;28;20031;-70
2023/12/19 03:17:05;;;;;;;1.65;1.00;;;19.00;55.50;;;;;;4979495;28;20034;-70
2023/12/19 03:19:32;;;;;;;1.80;1.20;;;19.00;55.50;;;;;;4976441;28;20391;-70
2023/12/19 03:21:57;;;;;;;1.40;1.00;;;19.00;55.50;;;;;;4976777;28;20031;-70
2023/12/19 03:24:23;;;;;;;1.75;1.00;;;19.00;55.50;;;;;;4992471;28;20042;-70
2023/12/19 03:26:49;;;;;;;1.48;1.00;;;19.00;55.50;;;;;;4978632;28;20037;-70
2023/12/19 03:29:15;;;;;;;2.08;1.20;;;19.00;55.50;;;;;;4978197;28;20368;-70
2023/12/19 03:31:42;;;;;;;2.53;1.40;;;19.00;55.50;;;;;;4978579;28;20022;-70
2023/12/19 03:34:08;;;;;;;1.75;1.02;;;19.00;55.50;;;;;;4982974;28;20050;-68
2023/12/19 03:36:33;;;;;;;1.40;1.00;;;19.00;55.50;;;;;;4983204;28;20042;-70
2023/12/19 03:38:59;;;;;;;1.50;1.00;;;19.00;55.50;;;;;;4982864;28;20038;-70
2023/12/19 03:41:24;;;;;;;1.83;0.90;;;19.00;56.00;;;;;;4979342;28;20391;-70
2023/12/19 03:43:50;;;;;;;1.83;1.25;;;19.00;55.50;;;;;;4982001;28;20097;-70
2023/12/19 03:46:16;;;;;;;1.35;1.00;;;19.00;55.50;;;;;;4983310;28;20450;-70
2023/12/19 03:48:44;;;;;;;1.70;1.10;;;19.00;55.50;;;;;;4982687;28;20033;-70
2023/12/19 03:51:10;;;;;;;1.15;0.80;;;19.00;55.50;;;;;;4995858;28;20113;-70
2023/12/19 03:53:36;;;;;;;1.30;0.88;;;19.00;56.00;;;;;;4981554;28;20110;-70
2023/12/19 03:56:02;;;;;;;1.60;1.00;;;18.90;56.00;;;;;;4983110;28;20046;-69
2023/12/19 03:58:27;;;;;;;2.10;1.10;;;18.90;55.50;;;;;;4980830;28;20398;-69
2023/12/19 04:00:53;;;;;;;1.58;1.10;;;18.90;55.50;;;;;;4981719;28;20141;-69
2023/12/19 04:03:19;;;;;;;1.80;1.10;;;19.00;55.60;;;;;;4984475;28;20579;-69
2023/12/19 04:05:44;;;;;;;1.45;0.90;;;18.90;55.50;;;;;;4982184;28;20050;-68
2023/12/19 04:08:10;;;;;;;1.38;1.08;;;19.00;55.50;;;;;;4981769;28;20022;-68
2023/12/19 04:10:35;;;;;;;1.77;1.05;;;18.90;55.50;;;;;;4982527;28;20407;-68
2023/12/19 04:13:01;;;;;;;1.65;1.00;;;18.90;55.50;;;;;;4980606;28;20035;-68
2023/12/19 04:15:27;;;;;;;1.70;1.00;;;18.90;55.50;;;;;;4997136;28;20372;-68
2023/12/19 04:17:53;;;;;;;1.88;1.10;;;18.90;55.50;;;;;;4981612;28;20038;-68
2023/12/19 04:20:18;;;;;;;2.20;1.10;;;18.90;55.50;;;;;;4982683;28;20022;-68
2023/12/19 04:22:44;;;;;;;2.03;1.00;;;18.90;55.50;;;;;;4980763;28;20031;-68
2023/12/19 04:25:09;;;;;;;1.52;1.05;;;18.90;55.50;;;;;;4995814;28;20077;-68
2023/12/19 04:27:36;;;;;;;1.20;1.00;;;18.90;55.50;;;;;;4981601;28;20027;-69
2023/12/19 04:30:02;;;;;;;1.65;1.00;;;18.90;55.50;;;;;;4981233;28;20035;-68
2023/12/19 04:32:27;;;;;;;1.58;1.00;;;18.90;56.00;;;;;;4978506;28;20368;-68
2023/12/19 04:34:53;;;;;;;1.15;0.85;;;18.90;55.40;;;;;;4982977;28;20035;-68
2023/12/19 04:37:19;;;;;;;1.48;1.00;;;18.90;55.50;;;;;;4981452;28;20057;-68
2023/12/19 04:39:44;;;;;;;1.80;1.00;;;18.90;55.50;;;;;;4982921;28;20050;-68
2023/12/19 04:42:17;;;;;;;1.42;1.00;;;18.90;55.50;;;;;;4981700;28;20409;-68
2023/12/19 04:44:44;;;;;;;1.73;1.10;;;18.90;55.50;;;;;;4981847;28;20034;-67
2023/12/19 04:47:10;;;;;;;1.27;1.00;;;18.90;55.50;;;;;;4995567;28;20158;-68
2023/12/19 04:49:36;;;;;;;1.58;1.02;;;18.90;55.50;;;;;;4980363;28;20157;-68
2023/12/19 04:52:02;;;;;;;1.70;1.13;;;18.90;55.50;;;;;;4996367;28;20113;-68
2023/12/19 04:54:28;;;;;;;1.33;0.90;;;18.90;55.50;;;;;;4994070;28;20130;-67
2023/12/19 04:56:53;;;;;;;1.55;1.00;;;18.90;55.50;;;;;;4981469;28;20034;-67
2023/12/19 04:59:19;;;;;;;1.50;0.90;;;18.90;55.50;;;;;;4980399;28;20047;-67
2023/12/19 05:01:44;;;;;;;1.92;1.00;;;18.90;55.50;;;;;;4979851;28;20026;-68
2023/12/19 05:04:10;;;;;;;1.38;0.95;;;18.90;55.50;;;;;;4981720;28;20085;-67
2023/12/19 05:06:35;;;;;;;1.38;0.90;;;18.90;55.50;;;;;;4998493;28;20085;-67
2023/12/19 05:09:02;;;;;;;1.63;1.10;;;18.90;55.50;;;;;;4980485;28;20041;-67
2023/12/19 05:11:28;;;;;;;1.75;1.10;;;18.90;55.50;;;;;;4980035;28;20018;-67
2023/12/19 05:13:53;;;;;;;1.15;0.90;;;18.90;55.50;;;;;;4982011;28;20069;-67
2023/12/19 05:16:19;;;;;;;1.30;0.90;;;18.90;55.40;;;;;;4978742;28;20065;-68
2023/12/19 05:18:46;;;;;;;1.00;0.80;;;18.90;55.50;;;;;;4981385;28;20032;-68
2023/12/19 05:21:12;;;;;;;1.73;1.02;;;18.90;55.50;;;;;;4981935;28;20030;-67
2023/12/19 05:23:39;;;;;;;1.73;1.10;;;18.90;55.40;;;;;;4982801;28;20050;-67
2023/12/19 05:26:07;;;;;;;1.42;0.90;;;18.90;55.40;;;;;;4979760;28;20238;-68
2023/12/19 05:28:35;;;;;;;1.63;1.00;;;18.90;55.40;;;;;;4981890;28;20038;-67
2023/12/19 05:31:01;;;;;;;1.42;1.00;;;18.80;55.40;;;;;;4981294;28;20522;-67
2023/12/19 05:33:28;;;;;;;1.38;0.90;;;18.80;55.40;;;;;;4979095;28;20050;-67
2023/12/19 05:35:54;;;;;;;1.20;0.90;;;18.90;55.40;;;;;;4997999;28;20034;-67
2023/12/19 05:38:20;;;;;;;1.88;1.00;;;18.80;55.40;;;;;;4996162;28;20034;-67
2023/12/19 05:40:46;;;;;;;1.10;0.80;;;18.80;55.40;;;;;;4980102;28;20033;-67
2023/12/19 05:43:16;;;;;;;1.40;0.93;;;18.80;55.40;;;;;;4981456;28;20129;-67
2023/12/19 05:45:42;;;;;;;1.48;1.00;;;18.80;55.50;;;;;;4976986;28;20026;-67
2023/12/19 05:48:07;;;;;;;1.40;1.00;;;18.80;55.40;;;;;;4981523;28;20526;-68
2023/12/19 05:50:34;;;;;;;1.95;0.90;;;18.80;55.50;;;;;;4978162;28;20110;-67
2023/12/19 05:53:00;;;;;;;1.27;0.90;;;18.80;55.50;;;;;;4978283;28;20507;-68
2023/12/19 05:55:26;;;;;;;1.30;1.00;;;18.80;55.50;;;;;;4979777;28;20033;-67
2023/12/19 05:57:51;;;;;;;1.23;0.90;;;18.80;55.50;;;;;;4981632;28;20035;-66
2023/12/19 06:00:17;;;;;;;1.48;0.90;;;18.80;55.50;;;;;;4981248;28;20033;-67
2023/12/19 06:02:44;;;;;;;1.30;0.80;;;18.80;55.50;;;;;;4981768;28;20479;-66
2023/12/19 06:05:10;;;;;;;1.27;0.95;;;18.80;55.50;;;;;;4980937;28;20039;-68
2023/12/19 06:07:41;;;;;;;1.10;0.80;;;18.80;55.50;;;;;;4978676;28;20122;-68
2023/12/19 06:10:10;;;;;;;1.42;1.00;;;18.80;55.50;;;;;;4978656;28;20415;-68
2023/12/19 06:12:37;;;;;;;1.23;0.80;;;18.80;55.50;;;;;;4979568;28;20148;-68
2023/12/19 06:15:08;;;;;;;1.65;0.90;;;18.80;56.00;;;;;;4980927;28;20951;-67
2023/12/19 06:17:34;;;;;;;1.00;0.73;;;18.80;55.50;;;;;;4977924;28;20027;-68
2023/12/19 06:20:00;;;;;;;1.15;0.90;;;18.80;55.50;;;;;;4979655;28;20042;-68
2023/12/19 06:22:26;;;;;;;1.73;1.08;;;18.80;55.40;;;;;;4978775;28;20506;-68
2023/12/19 06:24:51;;;;;;;1.38;1.00;;;18.80;55.50;;;;;;4978719;28;20026;-68
2023/12/19 06:27:17;;;;;;;2.15;1.00;;;18.80;55.50;;;;;;4976700;28;20027;-68
2023/12/19 06:29:43;;;;;;;1.48;1.00;;;18.80;55.50;;;;;;4978641;28;20479;-68
2023/12/19 06:32:10;;;;;;;1.35;0.90;;;18.80;55.40;;;;;;4979545;28;20029;-68
2023/12/19 06:34:35;;;;;;;1.33;0.90;;;18.70;55.50;;;;;;4980618;28;20026;-68
2023/12/19 06:37:02;;;;;;;1.42;1.00;;;18.70;55.40;;;;;;4978278;28;20031;-68
2023/12/19 06:39:27;;;;;;;1.42;0.90;;;18.70;55.40;;;;;;4980365;28;20109;-68
2023/12/19 06:41:53;;;;;;;1.40;0.98;;;18.70;55.40;;;;;;4981528;28;20451;-68
2023/12/19 06:44:19;;;;;;;1.30;0.95;;;18.70;55.40;;;;;;4980210;28;20030;-68
2023/12/19 06:46:49;;;;;;;1.10;0.80;;;18.70;56.00;;;;;;4979428;28;20045;-68
2023/12/19 06:49:18;;;;;;;1.33;0.90;;;18.70;55.40;;;;;;4993685;28;20034;-68
2023/12/19 06:51:44;;;;;;;1.25;0.85;;;18.70;55.50;;;;;;4978744;28;20545;-68
2023/12/19 06:54:10;;;;;;;1.45;0.90;;;18.70;55.40;;;;;;4978859;28;20031;-68
2023/12/19 06:56:35;;;;;;;1.05;0.80;;;18.70;55.40;;;;;;4979954;28;20046;-68
2023/12/19 06:59:01;;;;;;;1.55;0.90;;;18.70;55.40;;;;;;4996169;28;20555;-68
2023/12/19 07:01:27;;;;;;;1.20;0.98;;;18.70;56.00;;;;;;4977327;28;20033;-68
2023/12/19 07:03:53;;;;;;;1.10;0.80;;;18.70;55.50;;;;;;4981388;28;20170;-68
2023/12/19 07:06:19;;;;;;;0.98;0.80;;;18.70;55.50;;;;;;4995616;28;20097;-68
2023/12/19 07:08:45;;;;;;;1.02;0.80;;;18.70;55.50;;;;;;4982014;28;20390;-68
2023/12/19 07:11:11;;;;;;;1.30;0.90;;;18.70;55.50;;;;;;4983270;28;20061;-68
2023/12/19 07:13:36;;;;;;;1.10;0.80;;;18.70;55.50;;;;;;4982085;28;20736;-68
2023/12/19 07:16:03;;;;;;;1.00;0.90;;;18.70;55.50;;;;;;4982588;28;20075;-68
2023/12/19 07:18:29;;;;;;;1.05;0.80;;;18.70;55.50;;;;;;4984092;28;20030;-67
2023/12/19 07:20:55;;;;;;;1.02;0.80;;;18.70;55.50;;;;;;4984853;28;20026;-68
2023/12/19 07:23:20;;;;;;;1.38;0.90;;;18.70;55.50;;;;;;4998281;28;20522;-68
2023/12/19 07:25:46;;;;;;;1.17;0.90;;;18.70;55.50;;;;;;4983185;28;20121;-65
2023/12/19 07:28:12;;;;;;;1.30;0.82;;;18.70;55.50;;;;;;4980027;28;20034;-66
2023/12/19 07:30:38;;;;;;;1.20;0.90;;;18.60;55.40;;;;;;4984063;28;20050;-66
2023/12/19 07:33:04;;;;;;;1.00;0.90;;;18.70;55.50;;;;;;4982800;28;20558;-66
2023/12/19 07:35:30;;;;;;;1.23;0.90;;;18.70;55.50;;;;;;4982151;28;20113;-68
2023/12/19 07:37:55;;;;;;;0.85;0.75;;;18.70;55.50;;;;;;4981268;28;20035;-68
2023/12/19 07:40:21;;;;;;;1.13;0.90;;;18.70;55.50;;;;;;4983236;28;20479;-69
2023/12/19 07:42:47;;;;;;;1.13;0.80;;;18.70;55.50;;;;;;4983555;28;20031;-69
2023/12/19 07:45:13;;;;;;;1.10;0.80;;;18.60;55.40;;;;;;4982551;28;20113;-68
2023/12/19 07:47:39;;;;;;;1.00;0.90;;;18.60;55.40;;;;;;4982499;28;20057;-69
2023/12/19 07:50:05;;;;;;;0.80;0.77;;;18.70;55.50;;;;;;4982792;28;20117;-69
2023/12/19 07:52:31;;;;;;;1.08;0.90;;;18.60;55.40;;;;;;4983579;28;20027;-68
2023/12/19 07:54:57;;;;;;;1.00;0.80;;;18.60;55.50;;;;;;4981392;28;20034;-69
2023/12/19 07:57:22;;;;;;;1.30;0.80;;;18.60;55.50;;;;;;4997044;28;20512;-69
2023/12/19 07:59:49;;;;;;;0.73;0.73;;;18.60;55.50;;;;;;4983179;28;20038;-69
2023/12/19 08:02:14;;;;;;;1.45;1.00;;;18.60;55.50;;;;;;4984232;28;20102;-68
2023/12/19 08:04:42;;;;;;;1.00;0.80;;;18.60;55.50;;;;;;4982826;28;20564;-69
2023/12/19 08:07:08;;;;;;;1.48;0.98;;;18.60;55.50;;;;;;4980977;28;20027;-68
2023/12/19 08:09:34;;;;;;;1.63;1.00;;;18.60;55.50;;;;;;4982309;28;20070;-69
2023/12/19 08:12:00;;;;;;;0.82;0.70;;;18.60;55.50;;;;;;4981156;28;20579;-69
2023/12/19 08:14:25;;;;;;;1.15;0.90;;;18.60;55.50;;;;;;4982199;28;20459;-68
2023/12/19 08:16:51;;;;;;;1.00;0.70;;;18.60;55.50;;;;;;4979946;28;20039;-69
2023/12/19 08:19:17;;;;;;;1.20;0.82;;;18.60;55.50;;;;;;4981078;28;20022;-69
2023/12/19 08:21:53;;;;;;;0.93;0.82;;;18.60;55.50;;;;;;4997575;28;20034;-68
2023/12/19 08:24:19;;;;;;;1.00;0.70;;;18.60;55.50;;;;;;4997373;28;20026;-69
2023/12/19 08:26:49;;;;;;;0.90;0.80;;;18.60;55.50;;;;;;4981945;28;20505;-68
2023/12/19 08:29:15;;;;;;;0.90;0.80;;;18.60;55.50;;;;;;4978369;28;20045;-68
2023/12/19 08:31:41;;;;;;;0.90;0.70;;;18.60;55.60;;;;;;4981121;28;20568;-68
2023/12/19 08:34:07;;;;;;;1.23;0.80;;;18.60;55.60;;;;;;4982616;28;20026;-69
2023/12/19 08:36:32;;;;;;;1.00;0.80;;;18.60;55.60;;;;;;4980901;28;20025;-69
2023/12/19 08:38:59;;;;;;;0.85;0.80;;;18.60;55.60;;;;;;4981803;28;20047;-69
2023/12/19 08:41:25;;;;;;;0.88;0.70;;;18.60;55.60;;;;;;4982915;28;20027;-69
2023/12/19 08:43:52;;;;;;;1.27;0.80;;;18.60;56.10;;;;;;4982547;28;20057;-69
2023/12/19 08:46:18;;;;;;;1.27;0.70;;;18.60;55.60;;;;;;4982983;28;20058;-68
2023/12/19 08:48:44;;;;;;;0.93;0.70;;;18.50;55.60;;;;;;4982192;28;20483;-68
2023/12/19 08:51:10;;;;;;;0.95;0.80;;;18.60;55.60;;;;;;4981119;28;20041;-68
2023/12/19 08:53:36;;;;;;;0.85;0.75;;;18.50;55.60;;;;;;4995235;28;20023;-68
2023/12/19 08:56:01;;;;;;;0.95;0.80;;;18.50;55.60;;;;;;4981294;28;20045;-68
2023/12/19 08:58:27;;;;;;;1.23;0.80;;;18.50;55.60;;;;;;4982834;28;20125;-69
2023/12/19 09:00:54;;;;;;;1.35;0.82;;;18.60;55.60;;;;;;4984946;28;20030;-69
2023/12/19 09:03:20;;;;;;;1.02;0.80;;;18.50;55.60;;;;;;4984507;28;20030;-68
2023/12/19 09:05:46;;;;;;;0.80;0.80;;;18.50;55.60;;;;;;4980221;28;20045;-69
2023/12/19 09:08:13;;;;;;;1.02;0.75;;;18.50;55.60;;;;;;4981773;28;20037;-69
2023/12/19 09:10:38;;;;;;;0.90;0.73;;;18.50;56.20;;;;;;4995697;28;20022;-69
2023/12/19 09:13:05;;;;;;;1.10;0.80;;;18.50;55.60;;;;;;4980784;28;20446;-69
2023/12/19 09:15:30;;;;;;;1.10;0.80;;;18.50;55.60;;;;;;4981986;28;20125;-68
2023/12/19 09:17:56;;;;;;;1.15;0.90;;;18.50;55.60;;;;;;4980848;28;20169;-69
2023/12/19 09:20:23;;;;;;;1.05;0.80;;;18.50;55.60;;;;;;4980580;28;20487;-69
2023/12/19 09:22:49;;;;;;;0.93;0.80;;;18.50;55.60;;;;;;4982830;28;20027;-69
2023/12/19 09:25:15;;;;;;;1.27;1.00;;;18.50;55.70;;;;;;4978976;28;20037;-69
2023/12/19 09:27:44;;;;;;;1.40;0.88;;;18.50;55.70;;;;;;4980978;28;20493;-69
2023/12/19 09:30:11;;;;;;;0.95;0.80;;;18.50;55.70;;;;;;4993781;28;20042;-69
2023/12/19 09:32:40;;;;;;;0.80;0.80;;;18.50;55.70;;;;;;4980906;28;20062;-69
2023/12/19 09:35:07;;;;;;;1.13;0.88;;;18.50;55.70;;;;;;4999525;28;20034;-69
2023/12/19 09:37:33;;;;;;;0.82;0.70;;;18.50;55.70;;;;;;4980620;28;20113;-69
2023/12/19 09:39:59;;;;;;;1.00;0.80;;;18.50;55.70;;;;;;4979027;28;20135;-69
2023/12/19 09:42:25;;;;;;;0.98;0.80;;;18.50;55.80;;;;;;4981117;28;20054;-69
2023/12/19 09:44:51;;;;;;;1.13;0.90;;;18.50;55.70;;;;;;4981330;28;20126;-70
2023/12/19 09:47:27;;;;;;;1.50;0.90;;;18.50;55.80;;;;;;4980801;28;20058;-70
2023/12/19 09:49:57;;;;;;;1.05;0.85;;;18.50;55.80;;;;;;4994351;28;20038;-70
2023/12/19 09:52:24;;;;;;;1.08;0.80;;;18.50;55.80;;;;;;4979215;28;20030;-70
2023/12/19 09:54:50;;;;;;;0.70;0.70;;;18.50;55.80;;;;;;4979148;28;20031;-70
2023/12/19 09:57:20;;;;;;;0.90;0.70;;;18.50;55.80;;;;;;4981446;28;20509;-71
2023/12/19 09:59:50;;;;;;;;;;;18.50;55.80;;;;;;4980109;28;20042;-70
2023/12/19 10:02:17;;;;;;;;;;;18.50;55.80;;;;;;4980229;28;20016;-70
2023/12/19 10:04:45;;;;;;;0.93;0.82;;;18.50;55.80;;;;;;4978318;28;19909;-70
2023/12/19 10:07:11;;;;;;;0.90;0.80;;;18.50;55.70;;;;;;4977224;28;20564;-70
2023/12/19 10:09:55;;;;;;;0.93;0.80;;;18.50;55.80;;;;;;4979320;28;20018;-70
2023/12/19 10:12:22;;;;;;;1.10;0.90;;;18.50;55.80;;;;;;4980569;28;20034;-70
2023/12/19 10:14:47;;;;;;;1.20;0.90;;;18.40;55.70;;;;;;4981312;28;20031;-70
2023/12/19 10:17:16;;;;;;;0.70;0.70;;;18.40;55.80;;;;;;4979581;28;20041;-70
2023/12/19 10:19:41;;;;;;;1.05;0.80;;;18.50;55.80;;;;;;4978851;28;20037;-70
2023/12/19 10:22:08;;;;;;;1.10;0.82;;;18.40;55.70;;;;;;4980816;28;20034;-70
2023/12/19 10:24:35;;;;;;;0.75;0.70;;;18.40;55.80;;;;;;4979420;28;20031;-70
2023/12/19 10:27:02;;;;;;;0.93;0.77;;;18.40;55.80;;;;;;4982283;28;20044;-70
2023/12/19 10:29:35;;;;;;;0.82;0.68;;;18.40;56.30;;;;;;4979017;28;20034;-70
2023/12/19 10:32:15;;;;;;;1.00;0.80;;;18.40;55.80;;;;;;4980463;28;20479;-70
2023/12/19 10:34:41;;;;;;;1.17;0.80;;;18.40;55.80;;;;;;4994515;28;20038;-70
2023/12/19 10:37:17;;;;;;;0.80;0.80;;;18.40;55.80;;;;;;4977595;28;20026;-71
2023/12/19 10:39:43;;;;;;;1.13;0.80;;;18.40;55.80;;;;;;4981439;28;20023;-70
2023/12/19 10:42:10;;;;;;;1.15;0.77;;;18.40;55.80;;;;;;4978629;28;20074;-70
2023/12/19 10:44:38;;;;;;;1.10;0.80;;;18.40;55.80;;;;;;4979109;28;20023;-69
2023/12/19 10:47:08;;;;;;;0.73;0.70;;;18.40;55.80;;;;;;4977905;28;20030;-69
2023/12/19 10:49:36;;;;;;;0.90;0.80;;;18.40;55.80;;;;;;4979415;28;20027;-69
2023/12/19 10:52:09;;;;;;;0.82;0.70;;;18.40;55.80;;;;;;4977027;28;20042;-69
2023/12/19 10:54:36;;;;;;;0.98;0.80;;;18.40;55.80;;;;;;4980026;28;20423;-68
2023/12/19 10:57:17;;;;;;;1.25;0.75;;;18.40;55.80;;;;;;4980049;28;20022;-69
2023/12/19 11:00:00;;;;;;;0.98;0.70;;;18.40;55.80;;;;;;4981912;28;20110;-68
2023/12/19 11:02:55;;;;;;;0.90;0.70;;;18.40;55.90;;;;;;4980068;28;20573;-69
2023/12/19 11:05:42;;;;;;;0.98;0.70;;;18.40;55.80;;;;;;4979964;28;20510;-69
2023/12/19 11:08:17;;;;;;;0.90;0.75;;;18.40;55.80;;;;;;4992310;28;20041;-69
2023/12/19 11:10:58;;;;;;;0.80;0.80;;;18.40;55.80;;;;;;4978625;28;20473;-68
2023/12/19 11:13:25;;;;;;;0.90;0.75;;;18.40;55.90;;;;;;4979718;28;20039;-69
2023/12/19 11:16:09;;;;;;;1.00;0.82;;;18.40;55.90;;;;;;4978668;28;20027;-69
2023/12/19 11:18:46;;;;;;;0.82;0.80;;;18.40;55.90;;;;;;4978342;28;20515;-69
2023/12/19 11:21:23;;;;;;;0.98;0.88;;;18.40;55.90;;;;;;4993068;28;20022;-69
2023/12/19 11:24:08;;;;;;;1.13;0.85;;;18.40;55.90;;;;;;4977244;28;20073;-70
2023/12/19 11:26:54;;;;;;;0.63;0.60;;;18.40;55.90;;;;;;4978507;28;20523;-68
2023/12/19 11:29:42;;;;;;;0.80;0.80;;;18.40;55.90;;;;;;4980477;28;20315;-69
2023/12/19 11:32:26;;;;;;;0.82;0.73;;;18.40;55.90;;;;;;4980109;28;20018;-69
2023/12/19 11:34:52;;;;;;;0.90;0.70;;;18.40;55.90;;;;;;4976474;28;20030;-69
2023/12/19 11:37:22;;;;;;;0.98;0.80;;;18.40;55.90;;;;;;4978971;28;20038;-69
2023/12/19 11:39:48;;;;;;;1.00;0.80;;;18.40;55.90;;;;;;4978778;28;20475;-69
2023/12/19 11:42:35;;;;;;;0.70;0.70;;;18.40;55.90;;;;;;4981082;28;20031;-69
2023/12/19 11:45:21;;;;;;;1.00;0.70;;;18.40;55.90;;;;;;4978988;28;20114;-69
2023/12/19 11:47:47;;;;;;;1.00;0.80;;;18.40;55.90;;;;;;4978478;28;20131;-69
2023/12/19 11:50:45;;;;;;;0.70;0.70;;;18.40;55.90;;;;;;4994033;28;20039;-69
2023/12/19 11:53:11;;;;;;;1.00;0.80;;;18.40;55.90;;;;;;4981157;28;20076;-69
2023/12/19 11:55:37;;;;;;;1.15;0.75;;;18.40;55.90;;;;;;4994798;28;20111;-70
2023/12/19 11:58:12;;;;;;;1.05;0.77;;;18.40;55.90;;;;;;4982057;28;20480;-69
2023/12/19 12:00:38;;;;;;;1.10;0.80;;;18.30;55.90;;;;;;4982448;28;20383;-69
2023/12/19 12:03:11;;;;;;;1.13;0.75;;;18.30;55.90;;;;;;4981888;28;20064;-69
2023/12/19 12:05:37;;;;;;;0.98;0.77;;;18.30;55.90;;;;;;4980782;28;20030;-70
2023/12/19 12:08:03;;;;;;;1.05;0.80;;;18.30;55.90;;;;;;4981781;28;20492;-70
2023/12/19 12:10:29;;;;;;;0.98;0.77;;;18.40;56.00;;;;;;4981577;28;20026;-70
2023/12/19 12:13:02;;;;;;;0.68;0.63;;;18.30;55.90;;;;;;4982632;28;20042;-69
2023/12/19 12:15:27;;;;;;;1.02;0.80;;;18.30;55.90;;;;;;4984129;28;20479;-66
2023/12/19 12:18:06;;;;;;;0.88;0.80;;;18.30;55.90;;;;;;4984498;28;20130;-67
2023/12/19 12:20:34;;;;;;;1.05;0.77;;;18.40;56.00;;;;;;4979201;28;20084;-68
2023/12/19 12:23:00;;;;;;;0.80;0.75;;;18.40;56.00;;;;;;4980583;28;20027;-67
2023/12/19 12:25:25;;;;;;;1.10;0.80;;;18.40;56.00;;;;;;4983137;28;20030;-67
2023/12/19 12:27:55;;;;;;;0.95;0.70;;;18.40;56.00;;;;;;4983697;28;20513;-67
2023/12/19 12:30:27;;;;;;;1.13;0.65;;;18.40;56.00;;;;;;4980490;28;20026;-67
2023/12/19 12:32:53;;;;;;;0.60;0.60;;;18.30;55.90;;;;;;4998349;28;20031;-67
2023/12/19 12:35:28;;;;;;;0.60;0.60;;;18.30;55.90;;;;;;4981384;28;20026;-67
2023/12/19 12:37:58;;;;;;;0.98;0.80;;;18.30;55.90;;;;;;4983816;28;20026;-67
2023/12/19 12:40:25;;;;;;;1.00;0.80;;;18.30;55.90;;;;;;4979534;28;20387;-67
2023/12/19 12:42:50;;;;;;;0.90;0.80;;;18.30;55.90;;;;;;4979968;28;20027;-66
2023/12/19 12:45:16;;;;;;;0.70;0.60;;;18.30;55.90;;;;;;4981629;28;20041;-67
2023/12/19 12:47:43;;;;;;;0.70;0.65;;;18.40;56.00;;;;;;4982234;28;20022;-67